Time;durP1;ratioP1;P1;durP2;ratioP2;P2;SDS_P1;SDS_P2;PMS_P1;PMS_P2;Temp;Humidity;BMP_temperature;BMP_pressure;BME280_temperature;BME280_humidity;BME280_pressure;Samples;Min_cycle;Max_cycle;Signal;HPM_P1;HPM_P2
2021/11/12 00:03:50;;;;;;;12.68;7.03;;;;;;;11.83;45.11;102026.97;5015238;28;20064;-57
2021/11/12 00:12:15;;;;;;;13.80;6.07;;;;;;;11.66;44.26;102001.28;4997123;28;20037;-57
2021/11/12 00:14:44;;;;;;;10.82;5.45;;;;;;;11.62;44.81;102000.63;5012687;28;20021;-57
2021/11/12 00:17:11;;;;;;;14.20;6.45;;;;;;;11.64;44.79;101997.84;5014844;28;20018;-58
2021/11/12 00:19:37;;;;;;;9.10;5.78;;;;;;;11.62;45.13;102005.13;5014664;28;20033;-57
2021/11/12 00:22:02;;;;;;;15.40;7.18;;;;;;;11.60;44.54;101994.53;5014647;28;20030;-58
2021/11/12 00:24:28;;;;;;;18.75;6.70;;;;;;;11.59;44.59;101991.94;5010634;28;20083;-58
2021/11/12 00:26:53;;;;;;;18.48;7.45;;;;;;;11.55;44.97;101995.81;5002915;28;20088;-57
2021/11/12 00:29:19;;;;;;;15.32;7.32;;;;;;;11.52;44.54;101990.66;4997524;28;20360;-58
2021/11/12 00:32:03;;;;;;;26.40;8.00;;;;;;;11.45;44.63;101981.28;5012246;28;20030;-58
2021/11/12 00:39:53;;;;;;;17.10;8.80;;;;;;;11.34;44.89;101991.91;5014146;28;20026;-58
2021/11/12 00:42:30;;;;;;;15.23;6.53;;;;;;;11.35;44.77;102001.69;5003641;28;20141;-58
2021/11/12 00:45:03;;;;;;;13.45;7.00;;;;;;;11.31;44.63;102010.91;5009711;28;20022;-59
2021/11/12 00:55:26;;;;;;;12.32;6.25;;;;;;;11.14;44.65;101993.28;4926982;28;20044;-57
2021/11/12 00:57:53;;;;;;;11.70;6.93;;;;;;;11.14;44.54;101997.81;5003770;28;20414;-58
2021/11/12 01:00:20;;;;;;;9.57;5.82;;;;;;;11.07;44.40;101992.84;5014101;28;20022;-57
2021/11/12 01:02:46;;;;;;;11.48;6.78;;;;;;;11.07;44.72;102003.56;4996638;28;20046;-57
2021/11/12 01:05:12;;;;;;;18.38;6.68;;;;;;;11.07;45.00;102002.72;4996085;28;20062;-57
2021/11/12 01:07:38;;;;;;;12.00;5.70;;;;;;;11.01;45.14;101987.91;4996704;28;20107;-57
2021/11/12 01:10:07;;;;;;;11.75;6.00;;;;;;;10.98;45.30;101990.78;4977258;28;20033;-57
2021/11/12 01:12:33;;;;;;;11.50;6.53;;;;;;;10.99;44.82;102000.56;5006869;28;20041;-58
2021/11/12 01:14:58;;;;;;;11.77;6.60;;;;;;;10.91;45.31;101989.50;5014237;28;20033;-58
2021/11/12 01:17:24;;;;;;;9.82;5.72;;;;;;;10.93;44.91;101990.25;5014100;28;20026;-59
2021/11/12 01:19:50;;;;;;;11.85;7.03;;;;;;;10.88;45.00;101987.00;5013878;28;20036;-57
2021/11/12 01:22:15;;;;;;;11.82;6.63;;;;;;;10.87;44.66;101982.59;4984491;28;20022;-57
2021/11/12 01:24:41;;;;;;;10.27;5.25;;;;;;;10.84;44.71;101977.44;4994466;28;20022;-57
2021/11/12 01:27:07;;;;;;;12.18;6.65;;;;;;;10.76;44.42;101977.09;4994183;28;20093;-57
2021/11/12 01:29:33;;;;;;;19.83;8.02;;;;;;;10.79;44.56;101971.53;4994278;28;20077;-58
2021/11/12 01:32:18;;;;;;;11.98;6.78;;;;;;;10.76;44.37;101961.03;4994509;28;20026;-58
2021/11/12 01:34:44;;;;;;;21.20;8.07;;;;;;;10.71;44.99;101960.47;4977329;28;20035;-57
2021/11/12 01:37:09;;;;;;;16.42;6.90;;;;;;;10.70;44.52;101958.75;4987216;28;20033;-57
2021/11/12 01:39:35;;;;;;;15.95;7.35;;;;;;;10.68;45.44;101958.00;5013752;28;20029;-56
2021/11/12 01:42:00;;;;;;;38.90;7.70;;;;;;;10.63;44.96;101944.06;5013853;28;20022;-56
2021/11/12 01:44:51;;;;;;;26.67;7.53;;;;;;;10.62;44.76;101953.03;5013866;28;20018;-57
2021/11/12 01:47:18;;;;;;;14.05;7.55;;;;;;;10.57;44.54;101949.81;4998545;28;20065;-56
2021/11/12 01:49:49;;;;;;;13.00;8.05;;;;;;;10.53;44.78;101945.59;4997707;28;20076;-56
2021/11/12 01:52:32;;;;;;;14.75;6.50;;;;;;;10.51;44.62;101940.38;5013924;28;20037;-56
2021/11/12 01:55:07;;;;;;;20.48;6.93;;;;;;;10.51;44.33;101939.50;5014091;28;20029;-57
2021/11/12 01:57:48;;;;;;;15.77;6.68;;;;;;;10.51;44.54;101943.03;5002169;28;20026;-56
2021/11/12 02:00:17;;;;;;;21.52;7.13;;;;;;;10.35;44.84;101920.91;4986848;28;20038;-57
2021/11/12 02:02:43;;;;;;;12.75;6.97;;;;;;;10.45;44.79;101934.53;4972611;28;20029;-57
2021/11/12 02:05:09;;;;;;;10.68;6.55;;;;;;;10.37;44.57;101928.84;5017307;28;20038;-58
2021/11/12 02:07:37;;;;;;;11.68;6.38;;;;;;;10.43;44.75;101942.69;5005252;28;20030;-58
2021/11/12 02:10:10;;;;;;;10.50;6.22;;;;;;;10.41;44.79;101938.41;4998215;28;20391;-57
2021/11/12 02:12:46;;;;;;;10.40;6.40;;;;;;;10.39;44.45;101934.94;4997589;28;20030;-57
2021/11/12 02:15:12;;;;;;;8.23;5.60;;;;;;;10.35;44.87;101928.09;4981529;28;20041;-57
2021/11/12 02:17:41;;;;;;;8.30;6.68;;;;;;;10.30;44.68;101924.84;4997591;28;20026;-57
2021/11/12 02:20:18;;;;;;;11.82;6.18;;;;;;;10.31;44.82;101926.56;4997376;28;20490;-57
2021/11/12 02:22:45;;;;;;;12.10;6.15;;;;;;;10.23;44.98;101910.13;4981468;28;20026;-56
2021/11/12 02:25:19;;;;;;;8.18;5.72;;;;;;;10.20;44.31;101907.66;4980016;28;20029;-56
2021/11/12 02:28:05;;;;;;;8.82;4.80;;;;;;;10.21;45.33;101910.25;4997518;28;20062;-56
2021/11/12 02:30:32;;;;;;;8.63;5.43;;;;;;;10.18;44.87;101909.59;4997325;28;20026;-57
2021/11/12 02:33:12;;;;;;;8.98;5.30;;;;;;;10.10;44.16;101902.03;4979808;28;20396;-58
2021/11/12 02:35:42;;;;;;;10.02;5.72;;;;;;;10.11;44.89;101905.53;4994836;28;20463;-56
2021/11/12 02:38:09;;;;;;;10.27;6.45;;;;;;;10.10;44.08;101901.16;5017027;28;20037;-57
2021/11/12 02:40:35;;;;;;;9.20;5.05;;;;;;;10.06;44.96;101899.63;5016739;28;20021;-57
2021/11/12 02:43:02;;;;;;;10.82;5.00;;;;;;;10.04;44.43;101899.75;5016401;28;20442;-58
2021/11/12 02:45:29;;;;;;;13.63;5.90;;;;;;;10.01;44.92;101893.72;4999643;28;20037;-56
2021/11/12 02:47:55;;;;;;;10.93;6.95;;;;;;;9.98;44.77;101897.47;5017065;28;20096;-57
2021/11/12 02:50:20;;;;;;;12.68;5.75;;;;;;;9.95;44.29;101886.94;5016805;28;20490;-57
2021/11/12 02:52:51;;;;;;;15.02;6.10;;;;;;;9.91;45.10;101886.28;5016470;28;20084;-56
2021/11/12 02:55:16;;;;;;;12.73;6.60;;;;;;;9.92;44.24;101879.13;5016407;28;20061;-56
2021/11/12 02:57:42;;;;;;;12.35;6.55;;;;;;;9.90;44.25;101875.69;4999169;28;20064;-56
2021/11/12 03:00:10;;;;;;;7.65;5.28;;;;;;;9.88;44.63;101874.94;4999169;28;20388;-56
2021/11/12 03:02:36;;;;;;;11.38;5.63;;;;;;;9.85;44.73;101875.97;5016127;28;20114;-57
2021/11/12 03:05:02;;;;;;;10.27;6.40;;;;;;;9.86;45.24;101879.50;4998907;28;20113;-56
2021/11/12 03:07:28;;;;;;;8.85;6.20;;;;;;;9.85;44.70;101872.47;5003256;28;20022;-55
2021/11/12 03:09:54;;;;;;;12.40;6.13;;;;;;;9.81;45.09;101868.25;4996467;28;20361;-56
2021/11/12 03:12:21;;;;;;;11.20;6.07;;;;;;;9.80;44.86;101878.09;4979188;28;20030;-57
2021/11/12 03:14:47;;;;;;;12.05;6.70;;;;;;;9.76;44.52;101860.53;4996246;28;20045;-57
2021/11/12 03:17:16;;;;;;;12.05;6.80;;;;;;;9.77;44.31;101867.56;4978901;28;20052;-58
2021/11/12 03:19:43;;;;;;;9.60;6.10;;;;;;;9.77;44.08;101862.22;4962639;28;20018;-57
2021/11/12 03:22:11;;;;;;;12.15;6.15;;;;;;;9.75;44.79;101863.28;4978650;28;20094;-59
2021/11/12 03:24:41;;;;;;;15.63;6.28;;;;;;;9.73;44.21;101855.38;4963509;28;20038;-57
2021/11/12 04:02:33;;;;;;;10.95;6.32;;;;;;;9.46;44.36;101861.63;4980959;28;20041;-57
2021/11/12 04:18:47;;;;;;;16.77;6.72;;;;;;;9.33;44.59;101864.19;4994961;28;20145;-56
2021/11/12 05:56:39;;;;;;;15.15;8.15;;;;;;;9.06;44.60;101729.63;4998060;28;20494;-55
2021/11/12 05:59:05;;;;;;;18.42;8.02;;;;;;;9.15;45.14;101737.06;4997872;28;20061;-57
2021/11/12 06:01:31;;;;;;;22.10;8.48;;;;;;;9.17;44.66;101721.78;4998088;28;20033;-58
2021/11/12 06:03:57;;;;;;;19.63;8.80;;;;;;;9.18;45.14;101718.16;4997861;28;20464;-57
2021/11/12 06:06:22;;;;;;;17.60;8.18;;;;;;;9.16;45.27;101712.03;4997447;28;20033;-57
2021/11/12 06:08:48;;;;;;;20.42;9.55;;;;;;;9.15;45.08;101702.31;4997387;28;20022;-56
2021/11/12 06:11:13;;;;;;;20.63;8.30;;;;;;;9.10;45.17;101688.41;4979914;28;20399;-58
2021/11/12 06:13:38;;;;;;;18.25;8.38;;;;;;;9.14;44.59;101684.53;4997535;28;20061;-57
2021/11/12 06:16:04;;;;;;;24.55;8.88;;;;;;;9.14;45.01;101679.19;4997988;28;20081;-57
2021/11/12 06:18:29;;;;;;;21.85;9.27;;;;;;;9.15;45.21;101686.28;4997392;28;20034;-56
2021/11/12 06:20:55;;;;;;;16.10;8.07;;;;;;;9.07;44.54;101681.41;4964388;28;20096;-56
2021/11/12 06:23:20;;;;;;;16.23;7.97;;;;;;;9.15;45.47;101697.84;4997374;28;20034;-57
2021/11/12 06:25:46;;;;;;;17.48;8.98;;;;;;;9.19;45.61;101703.81;4980208;28;20049;-57
2021/11/12 06:28:12;;;;;;;15.77;7.90;;;;;;;9.13;45.85;101688.16;4997968;28;20081;-57
2021/11/12 06:30:37;;;;;;;18.88;8.80;;;;;;;9.21;44.76;101708.09;4997367;28;20030;-56
2021/11/12 06:33:03;;;;;;;21.77;8.60;;;;;;;9.25;44.91;101716.78;4997254;28;20038;-55
2021/11/12 06:35:28;;;;;;;22.85;8.50;;;;;;;9.26;44.79;101707.81;4997060;28;20451;-57
2021/11/12 06:37:55;;;;;;;18.63;7.90;;;;;;;9.25;45.06;101698.06;4979880;28;20030;-57
2021/11/12 06:40:21;;;;;;;20.17;8.65;;;;;;;9.16;45.35;101693.31;4997510;28;20054;-56
2021/11/12 06:50:35;;;;;;;19.05;7.65;;;;;;;9.08;44.86;101671.56;4982363;28;20125;-57
2021/11/12 06:53:01;;;;;;;21.55;8.00;;;;;;;9.09;45.08;101673.31;4997193;28;20030;-56
2021/11/12 06:55:27;;;;;;;20.60;7.97;;;;;;;9.08;44.29;101658.22;4997106;28;20077;-58
2021/11/12 06:57:52;;;;;;;19.48;7.30;;;;;;;9.09;44.88;101660.81;4979149;28;20387;-57
2021/11/12 07:00:20;;;;;;;16.52;7.50;;;;;;;9.07;44.62;101675.22;4996491;28;20030;-58
2021/11/12 07:02:45;;;;;;;19.40;8.05;;;;;;;9.12;45.05;101678.44;4996671;28;20084;-57
2021/11/12 07:05:12;;;;;;;23.23;8.35;;;;;;;9.14;45.65;101673.84;4996869;28;20475;-57
2021/11/12 07:07:37;;;;;;;18.88;7.63;;;;;;;9.21;45.77;101680.53;4997210;28;20030;-58
2021/11/12 07:10:05;;;;;;;21.98;8.23;;;;;;;9.25;44.57;101692.72;4996885;28;20034;-58
2021/11/12 07:12:30;;;;;;;15.27;8.02;;;;;;;9.31;45.63;101700.34;4996274;28;20022;-58
2021/11/12 07:14:55;;;;;;;14.98;7.95;;;;;;;9.39;44.69;101708.72;4996491;28;20079;-57
2021/11/12 07:17:21;;;;;;;21.95;8.98;;;;;;;9.41;44.63;101704.13;4996345;28;20053;-57
2021/11/12 07:19:46;;;;;;;22.30;10.13;;;;;;;9.46;45.53;101701.19;4996214;28;20092;-58
2021/11/12 07:22:12;;;;;;;22.33;8.40;;;;;;;9.51;45.04;101705.25;4996539;28;20030;-57
2021/11/12 07:24:38;;;;;;;18.73;9.02;;;;;;;9.52;44.67;101708.81;4996109;28;20142;-57
2021/11/12 07:27:05;;;;;;;23.20;9.10;;;;;;;9.63;44.89;101719.66;4996293;28;20046;-57
2021/11/12 07:29:31;;;;;;;17.95;8.93;;;;;;;9.69;44.71;101706.72;4996381;28;20037;-57
2021/11/12 07:31:57;;;;;;;18.63;9.18;;;;;;;9.73;45.27;101704.69;4996101;28;20026;-57
2021/11/12 07:34:29;;;;;;;18.48;7.93;;;;;;;9.79;44.78;101706.97;4996241;28;20030;-58
2021/11/12 07:37:08;;;;;;;14.93;8.45;;;;;;;9.77;44.56;101699.03;4978954;28;20034;-58
2021/11/12 07:40:09;;;;;;;17.55;8.32;;;;;;;9.86;45.30;101701.09;4995718;28;20042;-58
2021/11/12 07:45:09;;;;;;;17.25;7.35;;;;;;;9.93;44.33;101699.72;4996072;28;20018;-58
2021/11/12 07:47:35;;;;;;;19.80;8.25;;;;;;;9.97;44.28;101689.66;4995904;28;20019;-57
2021/11/12 07:50:05;;;;;;;20.67;7.75;;;;;;;10.03;44.78;101691.06;4995641;28;20129;-57
2021/11/12 07:52:33;;;;;;;25.02;8.35;;;;;;;10.05;44.86;101683.81;4995580;28;20113;-58
2021/11/12 07:54:59;;;;;;;21.77;8.40;;;;;;;10.07;45.02;101684.53;4995020;28;20022;-58
2021/11/12 07:57:25;;;;;;;21.15;7.95;;;;;;;10.09;44.83;101682.63;4995490;28;20077;-57
2021/11/12 07:59:50;;;;;;;15.73;6.82;;;;;;;10.08;44.59;101688.94;4978144;28;20081;-57
2021/11/12 08:02:17;;;;;;;21.38;8.30;;;;;;;10.09;45.12;101699.53;4977764;28;20026;-57
2021/11/12 08:04:44;;;;;;;16.55;7.75;;;;;;;10.13;44.33;101702.91;4995314;28;20026;-57
2021/11/12 08:07:11;;;;;;;18.92;7.90;;;;;;;10.12;44.85;101685.09;4995067;28;20030;-57
2021/11/12 08:09:40;;;;;;;16.58;9.27;;;;;;;10.21;44.81;101692.53;4995220;28;20027;-56
2021/11/12 08:12:10;;;;;;;17.45;7.50;;;;;;;10.26;45.31;101693.06;4995398;28;20494;-57
2021/11/12 08:17:30;;;;;;;13.57;7.55;;;;;;;10.35;45.08;101673.69;4995544;28;20026;-57
2021/11/12 08:25:06;;;;;;;16.35;8.25;;;;;;;10.63;44.82;101669.91;4995280;28;20027;-57
2021/11/12 08:38:24;;;;;;;25.73;8.25;;;;;;;11.36;44.32;101673.50;4919083;29;20382;-57
2021/11/12 08:41:02;;;;;;;19.45;8.00;;;;;;;11.50;44.37;101665.28;4934543;29;20529;-57
2021/11/12 08:43:32;;;;;;;26.98;8.18;;;;;;;11.64;44.30;101662.41;4934582;29;20055;-56
2021/11/12 08:46:05;;;;;;;20.02;8.52;;;;;;;11.79;43.85;101642.47;4934632;29;20112;-57
2021/11/12 08:48:39;;;;;;;;;;;;;;;12.01;44.13;101649.72;4918930;29;20067;-57
2021/11/12 08:51:13;;;;;;;20.33;7.90;;;;;;;12.11;43.91;101637.31;4919003;29;19949;-57
2021/11/12 08:53:39;;;;;;;16.52;7.28;;;;;;;12.31;44.13;101641.16;4919385;29;20039;-58
2021/11/12 08:56:12;;;;;;;16.65;8.35;;;;;;;12.47;44.43;101641.63;4934706;29;20040;-58
2021/11/12 08:58:37;;;;;;;16.35;7.85;;;;;;;12.61;44.07;101627.97;4934697;29;20481;-57
2021/11/12 09:01:02;;;;;;;17.80;6.70;;;;;;;12.78;43.50;101620.25;4934542;29;20046;-57
2021/11/12 09:03:28;;;;;;;16.00;7.32;;;;;;;12.97;43.93;101608.84;4956171;28;20038;-58
2021/11/12 09:05:53;;;;;;;18.83;8.50;;;;;;;13.15;43.80;101598.47;4976461;28;20030;-57
2021/11/12 09:08:19;;;;;;;16.27;8.60;;;;;;;13.33;43.78;101583.47;4994471;28;20171;-58
2021/11/12 09:10:44;;;;;;;21.70;8.43;;;;;;;13.57;42.48;101583.25;4994568;28;20097;-59
2021/11/12 09:13:25;;;;;;;17.05;7.80;;;;;;;13.84;42.73;101572.81;4994654;28;20045;-58
2021/11/12 09:15:54;;;;;;;17.80;8.77;;;;;;;14.14;42.32;101566.59;4994781;28;20506;-58
2021/11/12 09:18:22;;;;;;;15.48;7.82;;;;;;;14.45;42.92;101574.59;4994271;28;20044;-58
2021/11/12 09:20:49;;;;;;;25.88;8.68;;;;;;;14.89;42.82;101577.84;5019359;28;20037;-58
2021/11/12 09:23:14;;;;;;;17.52;8.32;;;;;;;15.25;41.46;101582.56;5034108;28;20021;-59
2021/11/12 09:25:40;;;;;;;20.63;8.43;;;;;;;15.65;41.78;101586.03;5034281;28;20470;-57
2021/11/12 09:28:05;;;;;;;23.67;9.35;;;;;;;16.05;40.94;101587.69;5016364;28;20034;-59
2021/11/12 09:30:35;;;;;;;16.48;7.82;;;;;;;16.43;40.84;101586.69;5034241;28;20560;-57
2021/11/12 09:33:00;;;;;;;14.35;7.68;;;;;;;16.83;40.43;101593.50;5033994;28;20045;-58
2021/11/12 09:35:25;;;;;;;16.88;7.57;;;;;;;17.17;40.44;101585.59;5000061;28;20077;-58
2021/11/12 09:37:52;;;;;;;19.42;6.80;;;;;;;17.47;40.43;101584.41;5033759;28;20056;-58
2021/11/12 09:40:20;;;;;;;17.35;6.85;;;;;;;17.70;39.93;101572.06;5033779;28;20485;-58
2021/11/12 09:42:47;;;;;;;14.27;7.10;;;;;;;18.01;39.74;101589.59;5034604;28;20071;-58
2021/11/12 09:45:13;;;;;;;13.18;6.85;;;;;;;18.28;39.64;101585.03;5034050;28;20053;-58
2021/11/12 09:47:39;;;;;;;13.57;6.85;;;;;;;18.52;39.25;101571.63;5016073;28;20033;-58
2021/11/12 09:50:11;;;;;;;17.55;7.47;;;;;;;18.77;39.41;101559.88;5000656;28;20028;-58
2021/11/12 09:52:37;;;;;;;19.27;7.95;;;;;;;19.03;38.91;101549.75;5034795;28;20021;-58
2021/11/12 09:55:05;;;;;;;13.27;7.28;;;;;;;19.35;38.21;101542.66;5034495;28;20021;-59
2021/11/12 09:57:30;;;;;;;13.63;7.35;;;;;;;19.61;38.07;101549.69;5034748;28;20428;-58
2021/11/12 09:59:59;;;;;;;15.63;7.68;;;;;;;19.84;37.79;101538.97;5034077;28;20112;-61
2021/11/12 10:02:29;;;;;;;12.95;6.43;;;;;;;20.07;37.97;101537.22;5034294;28;20021;-58
2021/11/12 10:04:55;;;;;;;13.55;7.22;;;;;;;20.23;37.46;101522.72;5034099;28;20040;-61
2021/11/12 10:07:23;;;;;;;12.98;7.35;;;;;;;20.44;37.66;101533.03;5033949;28;20029;-58
2021/11/12 10:10:08;;;;;;;12.38;7.68;;;;;;;20.62;37.39;101528.22;5033994;28;20103;-58
2021/11/12 10:12:40;;;;;;;16.13;7.38;;;;;;;20.73;37.42;101503.31;5034618;28;20040;-61
2021/11/12 10:15:17;;;;;;;16.25;7.53;;;;;;;20.90;37.21;101507.66;5033795;28;20107;-58
2021/11/12 10:17:44;;;;;;;15.35;8.07;;;;;;;21.08;37.81;101496.50;5036151;28;20029;-58
2021/11/12 10:20:12;;;;;;;15.07;7.50;;;;;;;21.22;36.63;101488.38;5037153;28;20017;-58
2021/11/12 10:22:39;;;;;;;15.82;7.50;;;;;;;21.31;36.81;101487.28;5019096;28;20033;-59
2021/11/12 10:25:07;;;;;;;12.95;7.03;;;;;;;21.44;36.25;101487.50;5019530;28;20033;-59
2021/11/12 10:27:34;;;;;;;14.60;7.50;;;;;;;21.45;36.57;101489.22;5037071;28;20466;-58
2021/11/12 10:30:24;;;;;;;12.40;7.35;;;;;;;21.46;36.82;101485.47;5019291;28;20375;-58
2021/11/12 10:32:56;;;;;;;18.30;7.22;;;;;;;21.51;35.92;101486.78;5022154;28;20042;-59
2021/11/12 10:35:22;;;;;;;11.73;7.60;;;;;;;21.60;36.50;101480.22;5036527;28;20037;-60
2021/11/12 10:37:48;;;;;;;12.25;6.75;;;;;;;21.74;36.35;101476.69;5036463;28;20037;-60
2021/11/12 10:40:16;;;;;;;16.35;7.55;;;;;;;21.86;36.72;101464.28;5036089;28;20390;-61
2021/11/12 10:42:47;;;;;;;11.90;7.32;;;;;;;22.03;36.28;101472.13;5036050;28;20053;-60
2021/11/12 10:45:23;;;;;;;13.90;7.10;;;;;;;22.17;35.44;101478.59;5036287;28;20428;-60
2021/11/12 10:47:51;;;;;;;14.77;7.65;;;;;;;22.27;35.97;101456.50;5036046;28;20024;-60
2021/11/12 10:50:18;;;;;;;14.75;7.47;;;;;;;22.32;35.54;101454.88;5036433;28;20026;-60
2021/11/12 10:52:44;;;;;;;15.73;6.97;;;;;;;22.42;35.55;101455.41;5035978;28;20025;-60
2021/11/12 10:55:17;;;;;;;12.25;7.65;;;;;;;22.46;35.48;101439.50;5018243;28;20080;-60
2021/11/12 10:57:55;;;;;;;16.25;7.50;;;;;;;22.51;34.92;101448.81;5018553;28;20474;-62
2021/11/12 11:00:32;;;;;;;14.50;7.97;;;;;;;22.52;34.94;101423.22;5035724;28;20028;-60
2021/11/12 11:03:01;;;;;;;14.07;7.38;;;;;;;22.60;35.97;101427.69;5035896;28;20032;-60
2021/11/12 11:05:30;;;;;;;14.77;8.35;;;;;;;22.61;34.94;101422.03;5035898;28;20028;-60
2021/11/12 11:07:56;;;;;;;14.23;8.40;;;;;;;22.64;34.79;101420.00;5035543;28;20049;-60
2021/11/12 11:10:30;;;;;;;14.88;7.60;;;;;;;22.70;35.54;101419.25;5035744;28;20021;-60
2021/11/12 11:13:08;;;;;;;15.57;7.63;;;;;;;22.73;35.59;101410.63;5035598;28;20033;-60
2021/11/12 11:15:36;;;;;;;13.88;7.40;;;;;;;22.76;34.82;101412.97;5035847;28;20116;-60
2021/11/12 11:18:18;;;;;;;12.25;7.32;;;;;;;22.82;35.30;101417.66;5035575;28;20025;-59
2021/11/12 11:20:51;;;;;;;20.75;8.27;;;;;;;22.84;34.52;101415.56;5035431;28;20041;-61
2021/11/12 11:23:17;;;;;;;;;;;;;;;22.89;34.84;101402.19;5036059;28;20051;-62
2021/11/12 11:26:00;;;;;;;15.30;7.75;;;;;;;22.77;35.96;101398.28;5035316;28;19909;-61
2021/11/12 11:28:27;;;;;;;16.40;7.68;;;;;;;22.77;35.04;101401.03;5017400;28;20501;-59
2021/11/12 11:30:52;;;;;;;14.60;7.63;;;;;;;22.75;35.34;101400.38;5017507;28;20084;-60
2021/11/12 11:33:19;;;;;;;14.30;8.25;;;;;;;22.75;35.14;101394.91;5035152;28;20033;-62
2021/11/12 11:35:46;;;;;;;15.93;8.25;;;;;;;22.79;35.88;101390.72;5035164;28;20025;-60
2021/11/12 11:38:14;;;;;;;17.23;8.05;;;;;;;22.80;34.82;101393.28;5034884;28;20029;-59
2021/11/12 11:40:43;;;;;;;12.90;7.32;;;;;;;22.77;35.10;101399.13;5035359;28;20021;-60
2021/11/12 11:43:09;;;;;;;19.05;7.88;;;;;;;22.89;35.90;101389.34;5034910;28;20494;-60
2021/11/12 11:45:35;;;;;;;13.55;7.80;;;;;;;23.03;35.02;101406.75;5035129;28;20034;-60
2021/11/12 11:48:01;;;;;;;13.25;8.18;;;;;;;23.15;35.29;101397.81;5035132;28;20079;-60
2021/11/12 11:50:29;;;;;;;16.02;9.20;;;;;;;23.28;35.75;101399.81;5035125;28;20022;-60
2021/11/12 11:53:23;;;;;;;16.13;8.38;;;;;;;23.44;35.33;101402.28;5035048;28;20425;-60
2021/11/12 11:55:49;;;;;;;13.63;7.82;;;;;;;23.59;35.11;101399.47;5034705;28;20025;-59
2021/11/12 11:58:44;;;;;;;17.58;7.97;;;;;;;23.70;34.63;101390.69;5034551;28;20048;-60
2021/11/12 12:01:15;;;;;;;10.57;7.53;;;;;;;23.70;34.83;101387.94;5034795;28;20032;-60
2021/11/12 12:03:41;;;;;;;14.02;7.80;;;;;;;23.72;34.50;101370.28;5034475;28;20030;-60
2021/11/12 12:06:17;;;;;;;18.67;8.02;;;;;;;23.77;34.49;101376.00;5000454;28;20028;-60
2021/11/12 12:09:03;;;;;;;23.65;8.10;;;;;;;23.76;34.87;101373.44;5034662;28;20017;-60
2021/11/12 12:11:29;;;;;;;16.48;7.57;;;;;;;23.87;34.42;101359.19;5034509;28;20030;-60
2021/11/12 12:14:20;;;;;;;17.10;7.88;;;;;;;23.99;33.81;101356.72;5034294;28;20025;-60
2021/11/12 12:17:10;;;;;;;17.83;7.63;;;;;;;24.08;34.28;101344.56;5022951;28;20041;-60
2021/11/12 12:19:42;;;;;;;21.35;7.53;;;;;;;24.03;34.19;101338.84;5034022;28;20497;-60
2021/11/12 13:23:53;;;;;;;15.70;7.45;;;;;;;21.87;36.39;101266.84;5033756;28;20036;-60
2021/11/12 13:25:59;;;;;;;15.48;8.52;;;;;;;21.71;36.22;101253.41;5022700;28;20029;-60
2021/11/12 13:28:34;;;;;;;16.92;7.53;;;;;;;21.66;36.30;101266.78;5033981;28;20502;-60
2021/11/12 13:30:59;;;;;;;12.77;7.47;;;;;;;21.68;36.72;101264.69;5033399;28;20108;-60
2021/11/12 13:33:43;;;;;;;17.40;7.75;;;;;;;21.68;35.43;101259.25;5033426;28;20105;-60
2021/11/12 13:36:12;;;;;;;13.10;6.65;;;;;;;21.62;36.13;101254.53;5033810;28;20033;-60
2021/11/12 13:38:44;;;;;;;12.52;6.70;;;;;;;21.58;36.20;101258.72;5033753;28;20383;-60
2021/11/12 13:41:12;;;;;;;18.70;7.72;;;;;;;21.55;36.40;101249.03;5016287;28;20029;-59
2021/11/12 13:43:39;;;;;;;16.08;7.57;;;;;;;21.50;36.72;101237.00;5033240;28;20417;-60
2021/11/12 13:46:05;;;;;;;13.00;6.97;;;;;;;21.44;36.46;101242.16;5033544;28;20370;-59
2021/11/12 13:48:41;;;;;;;19.85;7.78;;;;;;;21.37;37.00;101224.88;5033780;28;20450;-60
2021/11/12 13:51:07;;;;;;;16.40;7.88;;;;;;;21.28;36.36;101220.56;5033900;28;20109;-60
2021/11/12 13:53:33;;;;;;;18.02;7.10;;;;;;;21.24;37.04;101219.25;5037278;28;20480;-60
2021/11/12 13:56:01;;;;;;;18.20;7.75;;;;;;;21.13;36.39;101211.56;5020211;28;20040;-60
2021/11/12 13:58:26;;;;;;;18.63;7.38;;;;;;;21.09;36.90;101209.38;5003627;28;20022;-60
2021/11/12 14:00:54;;;;;;;13.52;6.53;;;;;;;21.03;36.62;101210.09;5020190;28;20025;-60
2021/11/12 14:03:37;;;;;;;13.70;7.00;;;;;;;20.91;36.31;101198.81;5038012;28;20029;-59
2021/11/12 14:06:09;;;;;;;12.13;6.63;;;;;;;20.86;36.97;101203.97;5038667;28;20128;-59
2021/11/12 14:08:36;;;;;;;15.52;5.97;;;;;;;20.84;37.41;101200.63;5038111;28;20026;-59
2021/11/12 14:11:03;;;;;;;15.70;6.40;;;;;;;20.79;37.10;101197.59;5038437;28;20025;-59
2021/11/12 14:13:37;;;;;;;13.02;6.40;;;;;;;20.73;36.58;101190.19;5038011;28;20022;-60
2021/11/12 14:22:07;;;;;;;11.82;5.72;;;;;;;20.54;37.17;101183.41;5038144;28;20060;-59
2021/11/12 14:24:47;;;;;;;11.25;5.30;;;;;;;20.45;37.39;101172.78;5037212;28;20033;-59
2021/11/12 14:38:10;;;;;;;11.60;5.40;;;;;;;20.13;37.70;101169.28;5038076;28;20033;-60
2021/11/12 14:43:56;;;;;;;11.88;5.38;;;;;;;20.04;37.77;101173.09;5036944;28;20604;-60
2021/11/12 14:47:13;;;;;;;9.85;4.75;;;;;;;19.89;37.23;101145.00;5036953;28;20104;-60
2021/11/12 14:51:56;;;;;;;7.78;4.97;;;;;;;19.95;37.95;101163.31;5037412;28;20033;-59
2021/11/12 14:54:48;;;;;;;10.07;5.18;;;;;;;19.87;37.54;101147.06;5019729;28;20026;-59
2021/11/12 14:59:56;;;;;;;13.60;5.40;;;;;;;19.83;37.76;101156.59;5037317;28;20033;-59
2021/11/12 15:02:22;;;;;;;11.40;5.55;;;;;;;19.77;37.92;101151.88;5038189;28;20032;-59
2021/11/12 15:04:47;;;;;;;10.93;4.35;;;;;;;19.75;37.32;101153.94;5036895;28;20025;-59
2021/11/12 15:07:14;;;;;;;9.20;4.72;;;;;;;19.73;37.33;101150.56;5037921;28;20052;-60
2021/11/12 15:09:41;;;;;;;9.23;4.13;;;;;;;19.63;37.67;101134.47;5037712;28;20022;-60
2021/11/12 15:12:08;;;;;;;12.10;5.10;;;;;;;19.66;37.81;101141.41;5037297;28;20088;-60
2021/11/12 15:14:38;;;;;;;10.90;3.95;;;;;;;19.60;37.90;101140.28;5036736;28;20021;-60
2021/11/12 15:17:05;;;;;;;10.57;4.35;;;;;;;19.55;37.94;101137.25;5036691;28;20287;-60
2021/11/12 15:19:34;;;;;;;13.40;4.63;;;;;;;19.49;37.40;101131.69;5037324;28;20022;-60
2021/11/12 15:29:57;;;;;;;10.00;4.80;;;;;;;19.42;37.40;101117.97;5036930;28;20093;-60
2021/11/12 15:32:32;;;;;;;12.90;5.13;;;;;;;19.40;37.04;101113.75;5019818;28;20500;-60
2021/11/12 15:35:06;;;;;;;11.32;4.72;;;;;;;19.36;38.06;101112.38;5036749;28;20025;-60
2021/11/12 15:40:11;;;;;;;11.35;4.07;;;;;;;19.32;37.80;101116.50;5037239;28;20080;-60
2021/11/12 15:47:48;;;;;;;13.55;4.95;;;;;;;19.25;37.72;101112.78;5036627;28;20068;-60
2021/11/12 15:55:35;;;;;;;9.57;4.03;;;;;;;19.14;38.67;101095.03;5036874;28;20104;-60
2021/11/12 16:03:35;;;;;;;11.70;4.05;;;;;;;19.12;38.34;101095.19;5036405;28;20112;-60
2021/11/12 16:13:31;;;;;;;6.70;3.72;;;;;;;19.04;38.28;101084.38;5018521;28;20025;-60
2021/11/12 16:18:42;;;;;;;11.05;4.00;;;;;;;19.01;38.36;101073.84;5036881;28;20029;-59
2021/11/12 16:26:01;;;;;;;10.70;4.22;;;;;;;19.03;38.40;101066.41;5035978;28;20108;-60
2021/11/12 16:28:31;;;;;;;6.50;3.90;;;;;;;19.03;38.71;101044.69;5036095;28;20029;-60
2021/11/12 16:31:00;;;;;;;9.30;4.10;;;;;;;19.00;39.13;101045.03;5036543;28;20033;-60
2021/11/12 16:33:27;;;;;;;8.38;3.60;;;;;;;18.95;38.85;101046.59;5018809;28;20096;-59
2021/11/12 16:35:55;;;;;;;8.73;4.03;;;;;;;18.90;38.17;101028.09;5018357;28;20088;-60
2021/11/12 16:38:25;;;;;;;10.95;3.45;;;;;;;18.93;38.91;101040.47;5035544;28;20032;-60
2021/11/12 16:40:59;;;;;;;11.13;3.85;;;;;;;18.92;38.48;101038.81;5035869;28;20049;-60
2021/11/12 16:46:42;;;;;;;6.75;3.63;;;;;;;18.89;38.75;101040.00;5035704;28;20055;-60
2021/11/12 16:56:33;;;;;;;10.45;4.40;;;;;;;18.89;38.21;101029.16;5035534;28;20021;-60
2021/11/12 17:06:34;;;;;;;6.30;3.20;;;;;;;18.85;38.76;101021.53;5035719;28;20055;-60
2021/11/12 17:11:44;;;;;;;6.50;3.08;;;;;;;18.86;38.64;101024.06;5035616;28;20026;-60
2021/11/12 17:46:22;;;;;;;10.57;3.95;;;;;;;18.81;38.45;101034.63;5042819;28;20131;-60